Pittsburgh, PA (15221)

10:30 AM EDT on April 25, 2015 (GMT -0400)
Churchill | | Change Station
CLOSE
Current Station
Personal Weather Station
Location: Pittsburgh, PA
Elevation: 1175 ft
Nearby Weather Stations

Elev 1175 ft 40.43 °N, 79.85 °W | Updated 4 minutes ago

Overcast
Overcast
36.5 °F
Feels Like 36 °F
N
1.7
Wind Variable Wind from SSE

Today
High -- | Low -- °F
--% Chance of Precip.
Yesterday
High -- | Low -- °F
Precip. -- in
6:26 AM 8:08 PM
Waxing Crescent, 46% visible
Pressure 29.92 in
Visibility 10.0 miles
Clouds Scattered Clouds 700 ft
Overcast 6000 ft
Windchill 36 °F
Dew Point 33 °F
Humidity 87%
Rainfall 0.07 in
Snow Depth Not available.
UV 2 out of 12
Pollen 9.20 out of 12
Air Quality Not available.
Flu Activity Sporadic
SPECI KAGC 251411Z 00000KT 10SM SCT007 OVC060 03/00 A2992 RMK AO2 T00280000

More Conditions Fewer Conditions

Pressure 29.92 in
Visibility 10.0 miles
Clouds Scattered Clouds 700 ft
Overcast 6000 ft
Windchill 36 °F
Dew Point 33 °F
Humidity 87%
Rainfall 0.07 in
Snow Depth Not available.
UV 2 out of 12
Pollen 9.20 out of 12
Air Quality Not available.
Flu Activity Sporadic
SPECI KAGC 251411Z 00000KT 10SM SCT007 OVC060 03/00 A2992 RMK AO2 T00280000

More Conditions Fewer Conditions

10-Day Weather Forecast

Almanac

Astronomy

Apr. 25, 2015 Rise Set
Actual Time
Civil Twilight
Nautical Twilight
Astronomical Twilight
Moon
Length of Visible Light
Length of Day
Tomorrow will be .
, % of the Moon is Illuminated

Today's Extremes

State Highs State Lows

Community

WunderPhotos

Upload Photos

1,816,688 photos uploaded!

WunderBlogs® & News

Nearby

Air Quality

  Air Quality AQ Index Pollutant
Not available.

Snow Depth

Station Depth Elevation

Earthquake Activity

City Distance Mag. Time & Date
Minimum magnitude displayed is 2.5.

Coastal Water Temperatures

Place Temperature

Stations

Nearby Weather Stations

Station Location Temp. Windchill Dew Point Humidity Wind Precip. Elev Updated Type